Saffet Bey — TCUZ — position and weather

sailwx.info

Track history (hours):
 
Tides and Currents Weather Stations Pressure Air Temp Water Temp Dewpoint Dewpoint Depression Visibility Wind Speed Wind Dir Waves Ship Positions

Saffet Bey

Last reported at 2017-Jan-20 13:33 UTC. Time now 2017-Jan-22 12:13 UTC.
Position N 44°28' E 013°43'.

Length 164 m; draft 7.4 m.

Type: Cargo ship. MMSI: 271000419.

Date/timePositionNaut miles runAvg speedWind from/ knotsBaromVisibWave heightAir tempDewpointWater temp
2017-Jan-20 13:33N 44°28' E 013°43'1414.0
2017-Jan-20 12:33N 44°39' E 013°32'1414.1
2017-Jan-20 11:33N 44°52' E 013°22'1414.3
2017-Jan-20 10:33N 45°04' E 013°11'1414.0
2017-Jan-20 09:33N 45°17' E 013°03'1313.3
2017-Jan-20 08:33N 45°28' E 013°12'1515.0
2017-Jan-20 07:33N 45°37' E 013°29'1111.2
2017-Jan-20 06:32N 45°38' E 013°46'0 0.0
2017-Jan-20 05:32N 45°38' E 013°46'0 0.0
2017-Jan-20 04:32N 45°38' E 013°46'0 0.0
2017-Jan-20 03:29N 45°38' E 013°46'0 0.0
2017-Jan-20 02:32N 45°38' E 013°46'0 0.0
2017-Jan-20 01:32N 45°38' E 013°46'0 0.0
2017-Jan-20 00:26N 45°38' E 013°46'0 0.0
2017-Jan-19 23:32N 45°38' E 013°46'0 0.0
2017-Jan-19 22:31N 45°38' E 013°46'0 0.0
2017-Jan-19 21:31N 45°38' E 013°46'0 0.0
2017-Jan-19 20:28N 45°38' E 013°46'0 0.0
2017-Jan-19 19:16N 45°38' E 013°46'0 0.0
2017-Jan-19 18:28N 45°38' E 013°46'0 0.0
2017-Jan-19 17:31N 45°38' E 013°46'0 0.2
2017-Jan-19 16:33N 45°38' E 013°45'5 5.2
2017-Jan-19 15:33N 45°38' E 013°38'8 7.7
2017-Jan-19 14:33N 45°33' E 013°30'8 8.1
2017-Jan-19 13:31N 45°25' E 013°29'0 0.1
2017-Jan-19 12:31N 45°25' E 013°29'0 0.0
2017-Jan-19 11:31N 45°25' E 013°28'3 3.3
2017-Jan-19 10:33N 45°24' E 013°24'8 8.0
2017-Jan-19 09:33N 45°24' E 013°13'10 9.7
2017-Jan-19 08:34N 45°14' E 013°16'1010.3
2017-Jan-19 07:33N 45°04' E 013°20'1010.2
2017-Jan-19 06:33N 44°55' E 013°26'5 5.1
2017-Jan-19 05:33N 44°53' E 013°33'1010.3
2017-Jan-19 04:33N 45°03' E 013°29'1010.1
2017-Jan-19 03:33N 45°13' E 013°25'4 3.7
2017-Jan-19 02:33N 45°14' E 013°20'10 9.7
2017-Jan-19 01:33N 45°06' E 013°12'5 4.6
2017-Jan-19 00:33N 45°04' E 013°18'9 9.5
2017-Jan-18 23:33N 45°04' E 013°31'9 9.4
2017-Jan-18 22:33N 44°55' E 013°29'8 8.4
2017-Jan-18 21:33N 44°46' E 013°31'9 9.0
2017-Jan-18 20:33N 44°39' E 013°39'  
2017-Jan-16 10:15N 37°15' E 024°48'1714.3
2017-Jan-16 09:04N 37°25' E 025°05'714.0
2017-Jan-16 08:34N 37°29' E 025°12'2 0.1
2017-Jan-15 12:33N 37°30' E 025°14'1615.2
2017-Jan-15 11:30N 37°20' E 024°58'13114.3
2017-Jan-15 02:19N 36°21' E 022°32'1114.1
2017-Jan-15 01:33N 36°25' E 022°19'1514.5
2017-Jan-15 00:33N 36°32' E 022°04'58014.4
2017-Jan-13 08:12N 44°04' E 014°06'812.1
2017-Jan-13 07:31N 44°11' E 013°59'1111.6
2017-Jan-13 06:33N 44°20' E 013°51'1111.3
2017-Jan-13 05:33N 44°30' E 013°42'1111.3
2017-Jan-13 04:33N 44°39' E 013°33'1211.8
2017-Jan-13 03:33N 44°49' E 013°24'1312.6
2017-Jan-13 02:33N 44°59' E 013°14'1414.3
2017-Jan-13 01:33N 45°12' E 013°04'1413.5
2017-Jan-13 00:33N 45°25' E 013°08'1514.9
2017-Jan-12 23:33N 45°35' E 013°24'1312.7
2017-Jan-12 22:33N 45°39' E 013°42'3 2.8
2017-Jan-12 21:29N 45°38' E 013°46'0 0.0
2017-Jan-12 20:32N 45°38' E 013°46'0 0.0
2017-Jan-12 19:29N 45°38' E 013°46'0 0.0
2017-Jan-12 18:29N 45°38' E 013°46'0 0.0
2017-Jan-12 17:32N 45°38' E 013°46'0 0.0
2017-Jan-12 16:29N 45°38' E 013°46'0 0.0
2017-Jan-12 15:23N 45°38' E 013°46'0 0.0
2017-Jan-12 14:32N 45°38' E 013°46'0 0.0
2017-Jan-12 13:29N 45°38' E 013°46'0 0.0
2017-Jan-12 12:26N 45°38' E 013°46'0 0.0
2017-Jan-12 11:29N 45°38' E 013°46'0 0.0
2017-Jan-12 10:32N 45°38' E 013°46'0 0.0
2017-Jan-12 09:23N 45°38' E 013°46'0 0.0
2017-Jan-12 08:32N 45°38' E 013°46'0 0.0
2017-Jan-12 07:32N 45°38' E 013°46'0 0.0
2017-Jan-12 06:32N 45°38' E 013°46'0 0.0
2017-Jan-12 05:32N 45°38' E 013°46'0 0.0
2017-Jan-12 04:32N 45°38' E 013°46'0 0.0
2017-Jan-12 03:32N 45°38' E 013°46'0 0.0
2017-Jan-12 02:26N 45°38' E 013°46'0 0.0
2017-Jan-12 01:32N 45°38' E 013°46'0 0.0
2017-Jan-12 00:32N 45°38' E 013°46'0 0.0
2017-Jan-11 23:32N 45°38' E 013°46'0 0.0
2017-Jan-11 22:29N 45°38' E 013°46'0 0.0
2017-Jan-11 21:23N 45°38' E 013°46'0 0.0
2017-Jan-11 20:29N 45°38' E 013°46'0 0.0
2017-Jan-11 19:31N 45°38' E 013°46'0 0.0
2017-Jan-11 18:28N 45°38' E 013°46'0 0.0
2017-Jan-11 17:31N 45°38' E 013°46'0 0.0
2017-Jan-11 16:33N 45°38' E 013°46'6 6.1
2017-Jan-11 15:33N 45°37' E 013°37'1515.3
2017-Jan-11 14:34N 45°28' E 013°20'1413.9
2017-Jan-11 13:34N 45°14' E 013°16'1515.0
2017-Jan-11 12:34N 44°60' E 013°22'1515.0
2017-Jan-11 11:33N 44°47' E 013°33'1514.9
2017-Jan-11 10:33N 44°34' E 013°44'1514.9
2017-Jan-11 09:33N 44°22' E 013°56'  
Track history (hours):
 
Tides and Currents Weather Stations Pressure Air Temp Water Temp Dewpoint Dewpoint Depression Visibility Wind Speed Wind Dir Waves Ship Positions

Saffet Bey

Last reported at 2017-Jan-20 13:33 UTC. Time now 2017-Jan-22 12:13 UTC.
Position N 44°28' E 013°43'.

Length 164 m; draft 7.4 m.

Type: Cargo ship. MMSI: 271000419.

Date/timePositionNaut miles runAvg speedWind from/ knotsBaromVisibWave heightAir tempDewpointWater temp
2017-Jan-20 13:33N 44°28' E 013°43'1414.0
2017-Jan-20 12:33N 44°39' E 013°32'1414.1
2017-Jan-20 11:33N 44°52' E 013°22'1414.3
2017-Jan-20 10:33N 45°04' E 013°11'1414.0
2017-Jan-20 09:33N 45°17' E 013°03'1313.3
2017-Jan-20 08:33N 45°28' E 013°12'1515.0
2017-Jan-20 07:33N 45°37' E 013°29'1111.2
2017-Jan-20 06:32N 45°38' E 013°46'0 0.0
2017-Jan-20 05:32N 45°38' E 013°46'0 0.0
2017-Jan-20 04:32N 45°38' E 013°46'0 0.0
2017-Jan-20 03:29N 45°38' E 013°46'0 0.0
2017-Jan-20 02:32N 45°38' E 013°46'0 0.0
2017-Jan-20 01:32N 45°38' E 013°46'0 0.0
2017-Jan-20 00:26N 45°38' E 013°46'0 0.0
2017-Jan-19 23:32N 45°38' E 013°46'0 0.0
2017-Jan-19 22:31N 45°38' E 013°46'0 0.0
2017-Jan-19 21:31N 45°38' E 013°46'0 0.0
2017-Jan-19 20:28N 45°38' E 013°46'0 0.0
2017-Jan-19 19:16N 45°38' E 013°46'0 0.0
2017-Jan-19 18:28N 45°38' E 013°46'0 0.0
2017-Jan-19 17:31N 45°38' E 013°46'0 0.2
2017-Jan-19 16:33N 45°38' E 013°45'5 5.2
2017-Jan-19 15:33N 45°38' E 013°38'8 7.7
2017-Jan-19 14:33N 45°33' E 013°30'8 8.1
2017-Jan-19 13:31N 45°25' E 013°29'0 0.1
2017-Jan-19 12:31N 45°25' E 013°29'0 0.0
2017-Jan-19 11:31N 45°25' E 013°28'3 3.3
2017-Jan-19 10:33N 45°24' E 013°24'8 8.0
2017-Jan-19 09:33N 45°24' E 013°13'10 9.7
2017-Jan-19 08:34N 45°14' E 013°16'1010.3
2017-Jan-19 07:33N 45°04' E 013°20'1010.2
2017-Jan-19 06:33N 44°55' E 013°26'5 5.1
2017-Jan-19 05:33N 44°53' E 013°33'1010.3
2017-Jan-19 04:33N 45°03' E 013°29'1010.1
2017-Jan-19 03:33N 45°13' E 013°25'4 3.7
2017-Jan-19 02:33N 45°14' E 013°20'10 9.7
2017-Jan-19 01:33N 45°06' E 013°12'5 4.6
2017-Jan-19 00:33N 45°04' E 013°18'9 9.5
2017-Jan-18 23:33N 45°04' E 013°31'9 9.4
2017-Jan-18 22:33N 44°55' E 013°29'8 8.4
2017-Jan-18 21:33N 44°46' E 013°31'9 9.0
2017-Jan-18 20:33N 44°39' E 013°39'  
2017-Jan-16 10:15N 37°15' E 024°48'1714.3
2017-Jan-16 09:04N 37°25' E 025°05'714.0
2017-Jan-16 08:34N 37°29' E 025°12'2 0.1
2017-Jan-15 12:33N 37°30' E 025°14'1615.2
2017-Jan-15 11:30N 37°20' E 024°58'13114.3
2017-Jan-15 02:19N 36°21' E 022°32'1114.1
2017-Jan-15 01:33N 36°25' E 022°19'1514.5
2017-Jan-15 00:33N 36°32' E 022°04'58014.4
2017-Jan-13 08:12N 44°04' E 014°06'812.1
2017-Jan-13 07:31N 44°11' E 013°59'1111.6
2017-Jan-13 06:33N 44°20' E 013°51'1111.3
2017-Jan-13 05:33N 44°30' E 013°42'1111.3
2017-Jan-13 04:33N 44°39' E 013°33'1211.8
2017-Jan-13 03:33N 44°49' E 013°24'1312.6
2017-Jan-13 02:33N 44°59' E 013°14'1414.3
2017-Jan-13 01:33N 45°12' E 013°04'1413.5
2017-Jan-13 00:33N 45°25' E 013°08'1514.9
2017-Jan-12 23:33N 45°35' E 013°24'1312.7
2017-Jan-12 22:33N 45°39' E 013°42'3 2.8
2017-Jan-12 21:29N 45°38' E 013°46'0 0.0
2017-Jan-12 20:32N 45°38' E 013°46'0 0.0
2017-Jan-12 19:29N 45°38' E 013°46'0 0.0
2017-Jan-12 18:29N 45°38' E 013°46'0 0.0
2017-Jan-12 17:32N 45°38' E 013°46'0 0.0
2017-Jan-12 16:29N 45°38' E 013°46'0 0.0
2017-Jan-12 15:23N 45°38' E 013°46'0 0.0
2017-Jan-12 14:32N 45°38' E 013°46'0 0.0
2017-Jan-12 13:29N 45°38' E 013°46'0 0.0
2017-Jan-12 12:26N 45°38' E 013°46'0 0.0
2017-Jan-12 11:29N 45°38' E 013°46'0 0.0
2017-Jan-12 10:32N 45°38' E 013°46'0 0.0
2017-Jan-12 09:23N 45°38' E 013°46'0 0.0
2017-Jan-12 08:32N 45°38' E 013°46'0 0.0
2017-Jan-12 07:32N 45°38' E 013°46'0 0.0
2017-Jan-12 06:32N 45°38' E 013°46'0 0.0
2017-Jan-12 05:32N 45°38' E 013°46'0 0.0
2017-Jan-12 04:32N 45°38' E 013°46'0 0.0
2017-Jan-12 03:32N 45°38' E 013°46'0 0.0
2017-Jan-12 02:26N 45°38' E 013°46'0 0.0
2017-Jan-12 01:32N 45°38' E 013°46'0 0.0
2017-Jan-12 00:32N 45°38' E 013°46'0 0.0
2017-Jan-11 23:32N 45°38' E 013°46'0 0.0
2017-Jan-11 22:29N 45°38' E 013°46'0 0.0
2017-Jan-11 21:23N 45°38' E 013°46'0 0.0
2017-Jan-11 20:29N 45°38' E 013°46'0 0.0
2017-Jan-11 19:31N 45°38' E 013°46'0 0.0
2017-Jan-11 18:28N 45°38' E 013°46'0 0.0
2017-Jan-11 17:31N 45°38' E 013°46'0 0.0
2017-Jan-11 16:33N 45°38' E 013°46'6 6.1
2017-Jan-11 15:33N 45°37' E 013°37'1515.3
2017-Jan-11 14:34N 45°28' E 013°20'1413.9
2017-Jan-11 13:34N 45°14' E 013°16'1515.0
2017-Jan-11 12:34N 44°60' E 013°22'1515.0
2017-Jan-11 11:33N 44°47' E 013°33'1514.9
2017-Jan-11 10:33N 44°34' E 013°44'1514.9
2017-Jan-11 09:33N 44°22' E 013°56'  

Dump ship's entire track history